createdAt,value
2019-04-30T00:00:18.839Z,16.73
2019-04-30T00:02:56.963Z,16.00
2019-04-30T00:05:26.387Z,15.10
2019-04-30T00:07:58.487Z,18.93
2019-04-30T00:10:35.387Z,15.73
2019-04-30T00:12:57.947Z,18.00
2019-04-30T00:15:27.661Z,20.60
2019-04-30T00:18:00.309Z,17.53
2019-04-30T00:20:30.067Z,16.53
2019-04-30T00:22:59.483Z,17.67
2019-04-30T00:25:28.864Z,17.13
2019-04-30T00:28:00.371Z,17.40
2019-04-30T00:30:29.306Z,18.00
2019-04-30T00:32:58.865Z,17.53
2019-04-30T00:35:28.292Z,16.63
2019-04-30T00:38:00.180Z,17.10
2019-04-30T00:40:30.134Z,16.67
2019-04-30T00:43:00.141Z,18.67
2019-04-30T00:45:30.754Z,17.33
2019-04-30T00:48:00.243Z,18.03
2019-04-30T00:50:35.879Z,18.60
2019-04-30T00:53:05.867Z,17.47
2019-04-30T00:55:31.769Z,17.10
2019-04-30T00:58:01.147Z,17.07
2019-04-30T01:00:32.196Z,17.90
2019-04-30T01:03:09.533Z,17.20
2019-04-30T01:05:39.532Z,18.13
2019-04-30T01:08:09.964Z,20.50
2019-04-30T01:10:39.331Z,18.60
2019-04-30T01:13:11.866Z,16.10
2019-04-30T01:15:44.073Z,19.20
2019-04-30T01:18:10.839Z,17.77
2019-04-30T01:20:40.705Z,16.73
2019-04-30T01:23:12.272Z,18.17
2019-04-30T01:25:43.199Z,19.00
2019-04-30T01:28:16.302Z,17.57
2019-04-30T01:30:44.638Z,20.97
2019-04-30T01:33:14.053Z,19.57
2019-04-30T01:35:43.580Z,17.17
2019-04-30T01:38:13.048Z,18.00
2019-04-30T01:40:47.451Z,17.73
2019-04-30T01:43:14.823Z,17.20
2019-04-30T01:45:44.131Z,18.47
2019-04-30T01:48:13.454Z,20.20
2019-04-30T01:50:42.847Z,18.23
2019-04-30T01:53:13.354Z,19.43
2019-04-30T01:55:59.259Z,20.07
2019-04-30T01:58:39.350Z,19.83
2019-04-30T02:01:13.843Z,19.63
2019-04-30T02:03:43.296Z,18.93
2019-04-30T02:06:13.034Z,20.40
2019-04-30T02:08:42.403Z,20.57
2019-04-30T02:11:11.823Z,19.43
2019-04-30T02:13:41.232Z,21.00
2019-04-30T02:16:10.721Z,21.97
2019-04-30T02:18:40.128Z,24.23
2019-04-30T02:21:11.440Z,22.13
2019-04-30T02:23:40.647Z,20.47
2019-04-30T02:26:10.063Z,22.33
2019-04-30T02:28:39.446Z,22.83
2019-04-30T02:31:09.337Z,21.27
2019-04-30T02:33:40.561Z,19.70
2019-04-30T02:36:29.834Z,20.03
2019-04-30T02:39:02.288Z,20.03
2019-04-30T02:41:29.754Z,19.90
2019-04-30T02:44:00.533Z,21.03
2019-04-30T02:46:32.364Z,20.23
2019-04-30T02:49:03.178Z,21.40
2019-04-30T02:51:35.814Z,19.83
2019-04-30T02:54:15.140Z,21.57
2019-04-30T02:56:47.220Z,20.90
2019-04-30T02:59:16.611Z,23.00
2019-04-30T03:01:45.985Z,23.67
2019-04-30T03:04:15.394Z,23.20
2019-04-30T03:06:44.780Z,20.73
2019-04-30T03:09:14.187Z,20.07
2019-04-30T03:11:43.574Z,19.83
2019-04-30T03:14:12.951Z,23.33
2019-04-30T03:17:09.969Z,20.57
2019-04-30T03:19:46.975Z,22.20
2019-04-30T03:22:20.341Z,22.40
2019-04-30T03:24:50.249Z,20.67
2019-04-30T03:27:20.706Z,20.53
2019-04-30T03:29:50.852Z,20.60
2019-04-30T03:32:22.436Z,21.87
2019-04-30T03:34:52.079Z,21.77
2019-04-30T03:37:21.558Z,22.30
2019-04-30T03:39:50.993Z,23.10
2019-04-30T03:42:20.421Z,19.63
2019-04-30T03:44:49.968Z,20.77
2019-04-30T03:47:20.187Z,20.97
2019-04-30T03:49:50.096Z,19.03
2019-04-30T03:52:20.064Z,20.90
2019-04-30T03:54:49.645Z,18.50
2019-04-30T03:57:20.355Z,17.83
2019-04-30T03:59:50.191Z,17.67
2019-04-30T04:02:44.708Z,19.43
2019-04-30T04:05:29.824Z,19.80
2019-04-30T04:08:24.145Z,18.83
2019-04-30T04:11:00.621Z,20.33
2019-04-30T04:13:33.014Z,21.53
2019-04-30T04:16:01.674Z,19.00
2019-04-30T04:18:31.038Z,18.97
2019-04-30T04:21:11.337Z,17.63
2019-04-30T04:23:32.877Z,18.23
2019-04-30T04:26:02.464Z,18.77
2019-04-30T04:28:31.884Z,18.67
2019-04-30T04:31:01.263Z,20.20
2019-04-30T04:33:30.770Z,19.80
2019-04-30T04:36:00.145Z,20.37
2019-04-30T04:38:30.387Z,22.53
2019-04-30T04:41:03.076Z,24.63
2019-04-30T04:43:30.971Z,20.30
2019-04-30T04:46:00.363Z,20.57
2019-04-30T04:48:29.979Z,20.50
2019-04-30T04:51:00.012Z,20.03
2019-04-30T04:53:30.504Z,18.33
2019-04-30T04:56:00.127Z,16.97
2019-04-30T04:58:30.269Z,16.97
2019-04-30T05:00:59.859Z,17.07
2019-04-30T05:03:33.007Z,17.13
2019-04-30T05:06:02.863Z,18.10
2019-04-30T05:08:32.288Z,17.33
2019-04-30T05:11:01.710Z,15.77
2019-04-30T05:13:31.091Z,15.67
2019-04-30T05:16:00.526Z,16.67
2019-04-30T05:18:29.922Z,16.80
2019-04-30T05:20:59.362Z,16.53
2019-04-30T05:23:29.808Z,17.40
2019-04-30T05:25:59.489Z,17.57
2019-04-30T05:28:30.092Z,16.67
2019-04-30T05:30:59.645Z,19.17
2019-04-30T05:33:29.304Z,17.17
2019-04-30T05:35:59.410Z,17.70
2019-04-30T05:38:31.233Z,17.60
2019-04-30T05:40:59.924Z,18.20
2019-04-30T05:43:29.306Z,18.63
2019-04-30T05:45:58.827Z,18.30
2019-04-30T05:48:28.724Z,18.67
2019-04-30T05:50:59.105Z,25.17
2019-04-30T05:53:28.828Z,17.67
2019-04-30T05:55:59.370Z,16.43
2019-04-30T05:58:29.961Z,18.40
2019-04-30T06:00:59.796Z,20.30
2019-04-30T06:03:32.903Z,19.23
2019-04-30T06:06:00.419Z,18.20
2019-04-30T06:08:39.179Z,20.30
2019-04-30T06:11:12.271Z,19.03
2019-04-30T06:13:58.990Z,19.27
2019-04-30T06:16:29.828Z,19.53
2019-04-30T06:18:59.252Z,19.33
2019-04-30T06:21:29.470Z,18.93
2019-04-30T06:23:59.212Z,21.57
2019-04-30T06:26:29.529Z,19.60
2019-04-30T06:28:59.362Z,20.57
2019-04-30T06:31:34.782Z,18.30
2019-04-30T06:33:59.867Z,19.90
2019-04-30T06:36:29.358Z,18.50
2019-04-30T06:38:59.023Z,18.77
2019-04-30T06:41:29.638Z,21.97
2019-04-30T06:43:59.147Z,17.17
2019-04-30T06:46:28.697Z,17.30
2019-04-30T06:48:59.483Z,17.17
2019-04-30T06:51:30.658Z,15.97
2019-04-30T06:53:59.948Z,15.90
2019-04-30T06:56:29.357Z,17.60
2019-04-30T06:58:59.018Z,14.47
2019-04-30T07:01:29.085Z,14.73
2019-04-30T07:04:00.765Z,13.67
2019-04-30T07:06:32.769Z,16.73
2019-04-30T07:09:33.540Z,15.17
2019-04-30T07:12:25.394Z,15.33
2019-04-30T07:14:44.843Z,17.13
2019-04-30T07:17:14.232Z,15.27
2019-04-30T07:19:54.167Z,14.57
2019-04-30T07:22:14.767Z,16.20
2019-04-30T07:24:44.293Z,16.23
2019-04-30T07:27:13.675Z,15.90
2019-04-30T07:29:43.070Z,13.53
2019-04-30T07:32:12.462Z,15.50
2019-04-30T07:34:41.875Z,14.13
2019-04-30T07:37:17.296Z,15.63
2019-04-30T07:39:42.375Z,18.37
2019-04-30T07:42:11.767Z,18.30
2019-04-30T07:44:41.147Z,18.80
2019-04-30T07:47:10.575Z,17.30
2019-04-30T07:49:49.898Z,15.90
2019-04-30T07:52:11.971Z,16.83
2019-04-30T07:54:41.922Z,20.10
2019-04-30T07:57:11.312Z,17.47
2019-04-30T07:59:40.736Z,18.80
2019-04-30T08:02:14.499Z,18.60
2019-04-30T08:05:10.534Z,20.53
2019-04-30T08:07:40.075Z,16.57
2019-04-30T08:10:09.803Z,21.37
2019-04-30T08:12:43.146Z,20.40
2019-04-30T08:15:10.317Z,20.83
2019-04-30T08:17:39.715Z,24.60
2019-04-30T08:20:09.091Z,23.53
2019-04-30T08:22:40.868Z,24.67
2019-04-30T08:25:10.192Z,22.50
2019-04-30T08:27:39.518Z,23.07
2019-04-30T08:30:21.448Z,26.27
2019-04-30T08:32:40.203Z,22.40
2019-04-30T08:35:10.024Z,24.30
2019-04-30T08:37:39.411Z,23.73
2019-04-30T08:40:09.084Z,28.90
2019-04-30T08:42:40.381Z,39.17
2019-04-30T08:45:10.004Z,36.23
2019-04-30T08:47:39.457Z,30.17
2019-04-30T08:50:09.743Z,29.27
2019-04-30T08:52:39.567Z,27.13
2019-04-30T08:55:14.143Z,26.73
2019-04-30T08:57:40.223Z,26.70
2019-04-30T09:00:11.811Z,27.07
2019-04-30T09:02:41.149Z,26.70
2019-04-30T09:05:30.463Z,24.30
2019-04-30T09:07:59.884Z,27.60
2019-04-30T09:10:29.548Z,28.07
2019-04-30T09:12:59.782Z,24.27
2019-04-30T09:15:29.256Z,26.63
2019-04-30T09:18:03.835Z,27.00
2019-04-30T09:20:29.723Z,22.63
2019-04-30T09:22:59.648Z,28.03
2019-04-30T09:25:29.070Z,27.53
2019-04-30T09:27:58.934Z,27.17
2019-04-30T09:30:29.923Z,24.50
2019-04-30T09:32:59.615Z,25.00
2019-04-30T09:35:31.785Z,28.33
2019-04-30T09:38:01.994Z,26.50
2019-04-30T09:40:32.575Z,22.93
2019-04-30T09:43:02.112Z,23.80
2019-04-30T09:45:31.651Z,23.53
2019-04-30T09:48:01.052Z,21.53
2019-04-30T09:50:30.490Z,19.63
2019-04-30T09:53:00.720Z,20.80
2019-04-30T09:55:30.284Z,23.67
2019-04-30T09:57:59.670Z,30.87
2019-04-30T10:00:29.618Z,22.90
2019-04-30T10:02:59.968Z,20.10
2019-04-30T10:05:29.678Z,21.40
2019-04-30T10:07:59.489Z,22.97
2019-04-30T10:10:34.350Z,19.77
2019-04-30T10:13:03.742Z,22.53
2019-04-30T10:15:54.855Z,19.00
2019-04-30T10:18:24.279Z,22.87
2019-04-30T10:20:53.665Z,21.50
2019-04-30T10:23:23.017Z,25.80
2019-04-30T10:25:52.447Z,19.73
2019-04-30T10:28:22.752Z,20.87
2019-04-30T10:30:52.144Z,20.13
2019-04-30T10:33:21.567Z,21.73
2019-04-30T10:35:51.371Z,19.83
2019-04-30T10:38:20.744Z,20.33
2019-04-30T10:40:50.156Z,18.97
2019-04-30T10:43:19.824Z,19.00
2019-04-30T10:45:49.300Z,19.43
2019-04-30T10:48:18.690Z,20.73
2019-04-30T10:50:49.214Z,23.43
2019-04-30T10:53:18.699Z,24.87
2019-04-30T10:55:48.587Z,20.67
2019-04-30T10:58:18.150Z,18.03
2019-04-30T11:00:47.895Z,17.83
2019-04-30T11:03:22.486Z,17.60
2019-04-30T11:05:49.603Z,16.73
2019-04-30T11:08:19.132Z,15.57
2019-04-30T11:10:48.503Z,19.57
2019-04-30T11:13:17.948Z,17.37
2019-04-30T11:15:49.088Z,20.30
2019-04-30T11:18:18.662Z,19.10
2019-04-30T11:20:49.771Z,17.10
2019-04-30T11:23:21.308Z,20.20
2019-04-30T11:25:51.347Z,16.67
2019-04-30T11:28:21.833Z,17.60
2019-04-30T11:30:53.872Z,20.33
2019-04-30T11:33:23.497Z,16.37
2019-04-30T11:36:02.251Z,16.37
2019-04-30T11:38:23.951Z,17.77
2019-04-30T11:40:53.355Z,20.10
2019-04-30T11:43:22.794Z,19.07
2019-04-30T11:46:44.951Z,17.57
2019-04-30T11:49:14.366Z,17.80
2019-04-30T11:51:43.755Z,20.10
2019-04-30T11:54:13.159Z,19.77
2019-04-30T11:56:42.583Z,19.50
2019-04-30T11:59:11.979Z,19.57
2019-04-30T12:01:41.699Z,19.13
2019-04-30T12:04:11.071Z,20.67
2019-04-30T12:06:40.499Z,23.50
2019-04-30T12:09:32.657Z,21.93
2019-04-30T12:12:02.069Z,20.90
2019-04-30T12:14:31.453Z,19.80
2019-04-30T12:17:00.880Z,19.43
2019-04-30T12:19:30.259Z,21.33
2019-04-30T12:21:59.646Z,19.47
2019-04-30T12:24:30.406Z,19.27
2019-04-30T12:26:59.787Z,16.97
2019-04-30T12:29:29.280Z,18.63
2019-04-30T12:31:58.715Z,18.07
2019-04-30T12:34:28.143Z,19.83
2019-04-30T12:36:59.535Z,20.03
2019-04-30T12:39:30.101Z,20.93
2019-04-30T12:42:01.981Z,18.50
2019-04-30T12:44:30.627Z,15.47
2019-04-30T12:47:00.086Z,18.03
2019-04-30T12:52:13.311Z,14.93
2019-04-30T12:55:00.316Z,20.93
2019-04-30T12:57:39.271Z,17.97
2019-04-30T13:00:10.956Z,16.33
2019-04-30T13:02:40.366Z,16.93
2019-04-30T13:05:09.871Z,15.30
2019-04-30T13:07:40.390Z,17.80
2019-04-30T13:10:10.659Z,16.67
2019-04-30T13:12:40.848Z,16.30
2019-04-30T13:15:11.116Z,15.20
2019-04-30T13:17:40.534Z,16.43
2019-04-30T13:20:18.510Z,17.00
2019-04-30T13:22:41.247Z,16.40
2019-04-30T13:25:10.678Z,14.53
2019-04-30T13:27:43.204Z,16.70
2019-04-30T13:30:18.608Z,16.37
2019-04-30T13:33:00.063Z,16.27
2019-04-30T13:35:29.451Z,16.93
2019-04-30T13:38:08.372Z,17.27
2019-04-30T13:41:09.007Z,14.63
2019-04-30T13:43:55.864Z,17.93
2019-04-30T13:46:25.578Z,16.27
2019-04-30T13:48:55.006Z,15.37
2019-04-30T13:51:24.381Z,16.40
2019-04-30T13:53:53.792Z,15.23
2019-04-30T13:56:23.231Z,18.73
2019-04-30T13:58:52.639Z,17.33
2019-04-30T14:01:22.077Z,17.33
2019-04-30T14:04:13.455Z,15.70
2019-04-30T14:06:53.424Z,15.57
2019-04-30T14:09:26.703Z,16.00
2019-04-30T14:11:56.097Z,17.50
2019-04-30T14:14:25.624Z,19.67
2019-04-30T14:16:55.128Z,18.50
2019-04-30T14:19:24.896Z,18.47
2019-04-30T14:21:54.291Z,13.83
2019-04-30T14:24:23.802Z,17.93
2019-04-30T14:26:53.236Z,14.43
2019-04-30T14:29:22.651Z,15.47
2019-04-30T14:31:52.148Z,16.03
2019-04-30T14:34:21.524Z,18.67
2019-04-30T14:36:51.050Z,14.43
2019-04-30T14:39:20.546Z,18.43
2019-04-30T14:41:51.929Z,18.03
2019-04-30T14:44:24.251Z,14.67
2019-04-30T14:47:00.460Z,14.83
2019-04-30T14:49:59.138Z,14.80
2019-04-30T14:52:19.309Z,17.80
2019-04-30T14:55:01.831Z,14.27
2019-04-30T14:57:51.045Z,16.63
2019-04-30T15:00:38.827Z,15.83
2019-04-30T15:03:10.951Z,17.43
2019-04-30T15:05:48.522Z,16.67
2019-04-30T15:08:11.652Z,16.23
2019-04-30T15:10:41.268Z,15.17
2019-04-30T15:13:10.808Z,14.80
2019-04-30T15:15:40.215Z,14.70
2019-04-30T15:18:09.607Z,18.20
2019-04-30T15:20:39.826Z,15.37
2019-04-30T15:23:26.006Z,16.13
2019-04-30T15:25:55.391Z,15.47
2019-04-30T15:28:32.243Z,14.17
2019-04-30T15:30:55.931Z,15.60
2019-04-30T15:33:44.343Z,17.63
2019-04-30T15:36:13.703Z,15.47
2019-04-30T15:39:02.433Z,16.57
2019-04-30T15:41:32.070Z,18.33
2019-04-30T15:44:01.475Z,15.40
2019-04-30T15:46:30.944Z,17.93
2019-04-30T15:49:00.331Z,23.40
2019-04-30T15:51:29.757Z,19.37
2019-04-30T15:53:59.205Z,16.47
2019-04-30T15:56:35.316Z,24.73
2019-04-30T15:59:19.013Z,22.27
2019-04-30T16:01:51.262Z,24.07
2019-04-30T16:04:28.564Z,18.83
2019-04-30T16:06:58.493Z,18.40
2019-04-30T16:09:33.731Z,19.07
2019-04-30T16:12:11.306Z,19.27
2019-04-30T16:14:40.791Z,19.43
2019-04-30T16:17:23.079Z,21.50
2019-04-30T16:19:52.420Z,19.23
2019-04-30T16:22:21.831Z,21.53
2019-04-30T16:24:51.243Z,23.17
2019-04-30T16:27:20.647Z,20.77
2019-04-30T16:29:50.131Z,22.63
2019-04-30T16:32:20.631Z,22.63
2019-04-30T16:34:50.042Z,19.33
2019-04-30T16:37:20.252Z,19.47
2019-04-30T16:39:49.903Z,19.37
2019-04-30T16:42:19.347Z,19.30
2019-04-30T16:45:00.591Z,21.13
2019-04-30T16:47:29.685Z,20.80
2019-04-30T16:49:59.254Z,20.23
2019-04-30T16:52:29.447Z,21.90
2019-04-30T16:54:58.907Z,20.57
2019-04-30T16:57:30.293Z,23.30
2019-04-30T16:59:59.508Z,22.70
2019-04-30T17:02:31.701Z,27.03
2019-04-30T17:05:13.241Z,29.77
2019-04-30T17:08:05.631Z,20.93
2019-04-30T17:10:50.587Z,22.30
2019-04-30T17:13:47.671Z,20.57
2019-04-30T17:16:19.580Z,24.43
2019-04-30T17:18:49.923Z,23.27
2019-04-30T17:21:19.791Z,22.73
2019-04-30T17:23:50.992Z,25.87
2019-04-30T17:26:20.413Z,23.93
2019-04-30T17:28:50.020Z,23.17
2019-04-30T17:31:19.402Z,23.97
2019-04-30T17:33:48.911Z,23.33
2019-04-30T17:36:18.850Z,26.13
2019-04-30T17:38:48.639Z,26.60
2019-04-30T17:41:18.052Z,22.73
2019-04-30T17:43:49.404Z,23.27
2019-04-30T17:46:20.143Z,23.57
2019-04-30T17:48:49.628Z,23.73
2019-04-30T17:51:19.094Z,21.83
2019-04-30T17:54:06.112Z,26.13
2019-04-30T17:56:35.914Z,24.63
2019-04-30T17:59:05.308Z,21.97
2019-04-30T18:01:34.902Z,26.53
2019-04-30T18:04:04.457Z,23.70
2019-04-30T18:06:33.850Z,32.03
2019-04-30T18:09:03.398Z,27.40
2019-04-30T18:11:32.943Z,23.33
2019-04-30T18:14:02.450Z,22.50
2019-04-30T18:16:31.951Z,30.93
2019-04-30T18:19:19.207Z,23.63
2019-04-30T18:21:55.690Z,23.60
2019-04-30T18:24:37.094Z,23.90
2019-04-30T18:27:25.004Z,21.47
2019-04-30T18:29:54.475Z,24.53
2019-04-30T18:32:25.540Z,23.97
2019-04-30T18:34:55.063Z,20.83
2019-04-30T18:37:24.589Z,21.97
2019-04-30T18:39:54.027Z,20.50
2019-04-30T18:42:23.451Z,36.83
2019-04-30T18:44:52.819Z,21.17
2019-04-30T18:47:22.236Z,24.67
2019-04-30T18:49:53.902Z,23.27
2019-04-30T18:52:23.229Z,26.50
2019-04-30T18:54:52.771Z,24.27
2019-04-30T18:57:22.093Z,25.50
2019-04-30T18:59:51.521Z,22.00
2019-04-30T19:02:21.010Z,24.50
2019-04-30T19:04:50.440Z,23.30
2019-04-30T19:07:28.254Z,21.70
2019-04-30T19:10:10.667Z,23.37
2019-04-30T19:12:48.986Z,23.20
2019-04-30T19:15:59.048Z,22.23
2019-04-30T19:18:34.650Z,23.83
2019-04-30T19:21:05.154Z,21.57
2019-04-30T19:23:34.584Z,21.97
2019-04-30T19:26:04.379Z,22.87
2019-04-30T19:28:33.810Z,24.50
2019-04-30T19:31:03.300Z,23.93
2019-04-30T19:33:32.910Z,24.27
2019-04-30T19:36:02.395Z,28.10
2019-04-30T19:38:31.851Z,24.67
2019-04-30T19:41:03.999Z,24.50
2019-04-30T19:43:33.456Z,20.47
2019-04-30T19:46:04.168Z,24.00
2019-04-30T19:48:33.968Z,23.10
2019-04-30T19:51:03.640Z,27.30
2019-04-30T19:53:33.288Z,23.70
2019-04-30T19:56:02.758Z,26.30
2019-04-30T19:58:47.545Z,21.43
2019-04-30T20:01:03.511Z,21.13
2019-04-30T20:03:32.965Z,22.63
2019-04-30T20:06:02.365Z,23.57
2019-04-30T20:08:31.844Z,22.87
2019-04-30T20:11:01.376Z,21.53
2019-04-30T20:13:36.851Z,27.37
2019-04-30T20:16:01.836Z,22.03
2019-04-30T20:18:31.366Z,24.40
2019-04-30T20:21:02.337Z,23.63
2019-04-30T20:23:32.135Z,22.30
2019-04-30T20:26:01.544Z,28.57
2019-04-30T20:28:39.234Z,22.80
2019-04-30T20:31:01.967Z,21.47
2019-04-30T20:33:31.387Z,23.33
2019-04-30T20:36:00.819Z,22.67
2019-04-30T20:39:00.986Z,24.13
2019-04-30T20:41:31.987Z,22.17
2019-04-30T20:44:01.389Z,20.70
2019-04-30T20:46:34.960Z,24.67
2019-04-30T20:49:01.848Z,25.07
2019-04-30T20:51:31.242Z,25.20
2019-04-30T20:54:00.731Z,24.60
2019-04-30T20:56:30.178Z,27.00
2019-04-30T20:59:04.558Z,22.03
2019-04-30T21:01:30.667Z,26.67
2019-04-30T21:04:00.044Z,23.03
2019-04-30T21:06:29.840Z,23.20
2019-04-30T21:08:59.251Z,22.87
2019-04-30T21:11:28.666Z,26.50
2019-04-30T21:13:59.103Z,23.80
2019-04-30T21:16:28.610Z,22.60
2019-04-30T21:18:57.999Z,28.20
2019-04-30T21:21:28.750Z,22.27
2019-04-30T21:23:58.316Z,25.83
2019-04-30T21:26:27.691Z,25.90
2019-04-30T21:29:10.421Z,26.20
2019-04-30T21:31:53.175Z,23.53
2019-04-30T21:34:30.267Z,27.07
2019-04-30T21:36:59.805Z,23.70
2019-04-30T21:39:29.191Z,24.37
2019-04-30T21:41:59.446Z,23.73
2019-04-30T21:44:28.896Z,25.03
2019-04-30T21:46:58.428Z,26.13
2019-04-30T21:49:27.839Z,24.13
2019-04-30T21:51:57.271Z,23.80
2019-04-30T21:54:28.328Z,31.03
2019-04-30T21:56:57.755Z,28.17
2019-04-30T21:59:28.735Z,28.60
2019-04-30T22:01:58.256Z,24.67
2019-04-30T22:04:27.843Z,25.00
2019-04-30T22:06:59.435Z,26.73
2019-04-30T22:09:28.315Z,27.53
2019-04-30T22:11:59.211Z,28.63
2019-04-30T22:14:28.634Z,28.67
2019-04-30T22:16:59.427Z,27.40
2019-04-30T22:19:28.827Z,28.90
2019-04-30T22:21:59.480Z,27.87
2019-04-30T22:24:30.553Z,27.90
2019-04-30T22:26:59.947Z,28.87
2019-04-30T22:29:39.208Z,26.50
2019-04-30T22:32:03.760Z,34.30
2019-04-30T22:34:33.570Z,31.10
2019-04-30T22:37:02.952Z,31.83
2019-04-30T22:39:39.902Z,33.17
2019-04-30T22:42:35.821Z,39.73
2019-04-30T22:45:10.257Z,33.43
2019-04-30T22:47:39.646Z,30.67
2019-04-30T22:50:09.726Z,30.37
2019-04-30T22:52:39.136Z,30.50
2019-04-30T22:55:08.655Z,32.20
2019-04-30T22:57:38.145Z,32.47
2019-04-30T23:00:10.123Z,30.37
2019-04-30T23:02:52.743Z,35.70
2019-04-30T23:05:22.240Z,31.03
2019-04-30T23:07:51.624Z,33.97
2019-04-30T23:10:21.003Z,32.57
2019-04-30T23:12:50.435Z,35.17
2019-04-30T23:15:21.160Z,32.13
2019-04-30T23:17:50.568Z,29.70
2019-04-30T23:20:19.998Z,30.83
2019-04-30T23:22:49.423Z,34.83
2019-04-30T23:25:18.855Z,29.80
2019-04-30T23:27:48.248Z,30.30
2019-04-30T23:30:17.771Z,31.87
2019-04-30T23:32:47.183Z,28.93
2019-04-30T23:35:16.916Z,32.47
2019-04-30T23:37:46.319Z,35.37
2019-04-30T23:40:26.120Z,29.67
2019-04-30T23:42:55.641Z,32.93
2019-04-30T23:45:25.224Z,30.90
2019-04-30T23:47:54.670Z,32.73
2019-04-30T23:50:24.239Z,36.73
2019-04-30T23:52:53.667Z,34.93
2019-04-30T23:55:23.055Z,33.00
2019-04-30T23:57:52.507Z,31.43
